createdAt,value
2019-03-09T00:00:21.834Z,84.17
2019-03-09T00:01:21.803Z,83.59
2019-03-09T00:02:21.759Z,83.54
2019-03-09T00:03:21.716Z,83.78
2019-03-09T00:04:21.662Z,83.59
2019-03-09T00:05:21.614Z,83.54
2019-03-09T00:06:21.571Z,83.25
2019-03-09T00:07:21.538Z,83.49
2019-03-09T00:08:21.482Z,83.15
2019-03-09T00:09:21.457Z,83.45
2019-03-09T00:10:21.395Z,83.15
2019-03-09T00:11:21.342Z,83.45
2019-03-09T00:12:21.319Z,83.35
2019-03-09T00:13:21.269Z,84.42
2019-03-09T00:14:21.226Z,84.42
2019-03-09T00:15:21.175Z,84.42
2019-03-09T00:16:21.122Z,84.42
2019-03-09T00:17:21.087Z,85.19
2019-03-09T00:18:21.034Z,85.58
2019-03-09T00:19:20.998Z,85.29
2019-03-09T00:20:20.946Z,85.10
2019-03-09T00:21:20.923Z,85.29
2019-03-09T00:22:20.870Z,85.10
2019-03-09T00:23:20.828Z,85.88
2019-03-09T00:24:20.782Z,86.07
2019-03-09T00:25:20.738Z,86.16
2019-03-09T00:26:20.689Z,86.65
2019-03-09T00:27:29.406Z,86.16
2019-03-09T00:28:20.592Z,86.55
2019-03-09T00:29:20.549Z,87.33
2019-03-09T00:30:20.517Z,87.52
2019-03-09T00:31:20.472Z,87.52
2019-03-09T00:32:20.432Z,88.30
2019-03-09T00:33:20.372Z,88.20
2019-03-09T00:34:20.331Z,88.69
2019-03-09T00:35:20.305Z,88.93
2019-03-09T00:36:20.248Z,89.03
2019-03-09T00:37:20.209Z,89.03
2019-03-09T00:38:20.173Z,88.93
2019-03-09T00:39:20.115Z,89.23
2019-03-09T00:40:20.063Z,88.74
2019-03-09T00:41:20.040Z,89.32
2019-03-09T00:42:19.987Z,89.23
2019-03-09T00:43:19.939Z,88.84
2019-03-09T00:44:19.899Z,88.74
2019-03-09T00:45:19.863Z,88.93
2019-03-09T00:46:19.820Z,89.23
2019-03-09T00:47:19.756Z,89.23
2019-03-09T00:48:19.731Z,88.84
2019-03-09T00:49:19.677Z,89.03
2019-03-09T00:50:19.642Z,89.61
2019-03-09T00:51:19.599Z,89.52
2019-03-09T00:52:19.547Z,89.90
2019-03-09T00:53:19.526Z,89.61
2019-03-09T00:54:19.443Z,89.42
2019-03-09T00:55:19.399Z,88.55
2019-03-09T00:56:19.368Z,88.16
2019-03-09T00:57:19.311Z,87.48
2019-03-09T00:58:19.267Z,87.19
2019-03-09T00:59:19.222Z,87.29
2019-03-09T01:00:19.180Z,88.55
2019-03-09T01:01:19.137Z,89.13
2019-03-09T01:02:19.098Z,89.32
2019-03-09T01:03:19.061Z,89.81
2019-03-09T01:04:19.015Z,89.42
2019-03-09T01:05:18.965Z,90.39
2019-03-09T01:06:18.920Z,90.97
2019-03-09T01:07:18.889Z,90.83
2019-03-09T01:08:18.836Z,90.88
2019-03-09T01:09:18.802Z,90.88
2019-03-09T01:10:18.756Z,89.96
2019-03-09T01:11:18.699Z,88.84
2019-03-09T01:12:18.659Z,88.26
2019-03-09T01:13:18.616Z,88.74
2019-03-09T01:14:18.579Z,87.77
2019-03-09T01:15:18.533Z,88.12
2019-03-09T01:16:18.478Z,87.77
2019-03-09T01:17:18.424Z,88.35
2019-03-09T01:18:18.380Z,88.70
2019-03-09T01:19:18.359Z,88.31
2019-03-09T01:20:18.305Z,89.18
2019-03-09T01:21:18.268Z,89.37
2019-03-09T01:22:18.215Z,89.96
2019-03-09T01:23:18.181Z,90.16
2019-03-09T01:24:18.113Z,90.83
2019-03-09T01:25:18.077Z,90.54
2019-03-09T01:26:18.046Z,90.83
2019-03-09T01:27:17.988Z,90.73
2019-03-09T01:28:17.937Z,91.02
2019-03-09T01:29:17.913Z,90.83
2019-03-09T01:30:17.848Z,91.31
2019-03-09T01:31:17.802Z,91.12
2019-03-09T01:32:17.767Z,91.12
2019-03-09T01:33:17.714Z,91.71
2019-03-09T01:34:17.678Z,91.80
2019-03-09T01:35:17.646Z,91.61
2019-03-09T01:36:17.593Z,91.89
2019-03-09T01:37:17.537Z,92.33
2019-03-09T01:38:17.512Z,92.05
2019-03-09T01:39:17.467Z,92.43
2019-03-09T01:40:17.415Z,92.72
2019-03-09T01:41:17.366Z,92.53
2019-03-09T01:42:17.327Z,93.02
2019-03-09T01:43:17.281Z,92.53
2019-03-09T01:44:17.234Z,92.53
2019-03-09T01:45:17.190Z,92.53
2019-03-09T01:46:17.149Z,92.53
2019-03-09T01:47:17.106Z,93.40
2019-03-09T01:48:17.047Z,93.21
2019-03-09T01:49:17.004Z,92.67
2019-03-09T01:50:16.960Z,92.53
2019-03-09T01:51:16.941Z,92.63
2019-03-09T01:52:16.881Z,92.82
2019-03-09T01:53:16.824Z,92.82
2019-03-09T01:54:16.794Z,93.02
2019-03-09T01:55:16.774Z,92.92
2019-03-09T01:56:16.698Z,92.82
2019-03-09T01:57:16.666Z,92.82
2019-03-09T01:58:16.600Z,92.82
2019-03-09T01:59:16.555Z,92.72
2019-03-09T02:00:16.511Z,92.72
2019-03-09T02:01:16.488Z,92.92
2019-03-09T02:02:16.445Z,92.72
2019-03-09T02:03:16.381Z,93.60
2019-03-09T02:04:16.348Z,93.21
2019-03-09T02:05:21.170Z,93.88
2019-03-09T02:06:16.265Z,93.79
2019-03-09T02:07:16.199Z,93.70
2019-03-09T02:08:16.154Z,93.70
2019-03-09T02:09:16.119Z,93.70
2019-03-09T02:10:16.079Z,93.98
2019-03-09T02:11:16.030Z,94.08
2019-03-09T02:12:15.984Z,94.37
2019-03-09T02:13:15.953Z,94.27
2019-03-09T02:14:15.900Z,93.70
2019-03-09T02:15:16.054Z,94.18
2019-03-09T02:16:15.806Z,94.27
2019-03-09T02:17:15.791Z,94.32
2019-03-09T02:18:15.717Z,94.42
2019-03-09T02:19:15.678Z,94.32
2019-03-09T02:20:15.632Z,94.66
2019-03-09T02:21:15.588Z,94.47
2019-03-09T02:22:15.551Z,94.57
2019-03-09T02:23:15.486Z,94.37
2019-03-09T02:24:15.453Z,94.57
2019-03-09T02:25:15.449Z,94.47
2019-03-09T02:26:15.360Z,94.57
2019-03-09T02:27:15.329Z,95.15
2019-03-09T02:28:15.284Z,95.00
2019-03-09T02:29:15.239Z,95.39
2019-03-09T02:30:15.189Z,95.49
2019-03-09T02:31:15.150Z,96.07
2019-03-09T02:32:15.097Z,95.39
2019-03-09T02:33:15.047Z,96.07
2019-03-09T02:34:14.994Z,96.17
2019-03-09T02:35:14.971Z,96.07
2019-03-09T02:36:14.907Z,95.68
2019-03-09T02:37:14.868Z,96.07
2019-03-09T02:38:14.828Z,95.68
2019-03-09T02:39:14.771Z,95.78
2019-03-09T02:40:14.727Z,95.20
2019-03-09T02:41:14.694Z,95.29
2019-03-09T02:42:14.636Z,95.49
2019-03-09T02:43:14.613Z,95.15
2019-03-09T02:44:14.546Z,95.20
2019-03-09T02:45:14.515Z,94.81
2019-03-09T02:46:14.471Z,95.10
2019-03-09T02:47:14.413Z,95.39
2019-03-09T02:48:14.381Z,95.39
2019-03-09T02:49:14.337Z,95.87
2019-03-09T02:50:14.308Z,96.07
2019-03-09T02:51:14.247Z,96.07
2019-03-09T02:52:14.202Z,96.75
2019-03-09T02:53:14.155Z,96.36
2019-03-09T02:54:14.123Z,96.55
2019-03-09T02:55:14.064Z,97.23
2019-03-09T02:56:14.020Z,96.65
2019-03-09T02:57:13.977Z,96.84
2019-03-09T02:58:13.932Z,96.84
2019-03-09T02:59:13.887Z,96.45
2019-03-09T03:00:13.852Z,96.65
2019-03-09T03:01:13.793Z,96.84
2019-03-09T03:02:13.754Z,96.65
2019-03-09T03:03:13.718Z,96.45
2019-03-09T03:04:13.651Z,97.03
2019-03-09T03:05:13.628Z,97.13
2019-03-09T03:06:13.574Z,97.52
2019-03-09T03:07:13.530Z,97.33
2019-03-09T03:08:13.475Z,97.81
2019-03-09T03:09:13.462Z,97.33
2019-03-09T03:10:13.396Z,97.62
2019-03-09T03:11:13.346Z,97.81
2019-03-09T03:12:13.312Z,98.00
2019-03-09T03:13:13.258Z,98.00
2019-03-09T03:14:13.206Z,98.68
2019-03-09T03:15:13.189Z,98.88
2019-03-09T03:16:13.126Z,98.88
2019-03-09T03:17:13.078Z,98.88
2019-03-09T03:18:13.038Z,98.58
2019-03-09T03:19:12.987Z,98.58
2019-03-09T03:20:12.949Z,98.68
2019-03-09T03:21:12.897Z,98.49
2019-03-09T03:22:12.869Z,98.68
2019-03-09T03:23:12.821Z,98.39
2019-03-09T03:24:12.796Z,98.88
2019-03-09T03:25:12.715Z,99.51
2019-03-09T03:26:12.666Z,99.60
2019-03-09T03:27:12.634Z,99.99
2019-03-09T03:28:12.598Z,99.99
2019-03-09T03:29:12.543Z,99.99
2019-03-09T03:30:12.709Z,99.99
2019-03-09T03:31:12.450Z,99.99
2019-03-09T03:32:12.418Z,99.99
2019-03-09T03:33:12.365Z,99.99
2019-03-09T03:34:12.337Z,99.99
2019-03-09T03:35:12.277Z,99.99
2019-03-09T03:36:12.231Z,99.99
2019-03-09T03:37:12.181Z,99.99
2019-03-09T03:38:12.149Z,99.99
2019-03-09T03:39:12.090Z,99.99
2019-03-09T03:40:12.064Z,99.99
2019-03-09T03:41:12.007Z,99.99
2019-03-09T03:42:11.947Z,99.99
2019-03-09T03:43:11.924Z,99.99
2019-03-09T03:44:11.870Z,99.99
2019-03-09T03:45:11.822Z,99.99
2019-03-09T03:46:11.781Z,99.99
2019-03-09T03:47:11.723Z,99.99
2019-03-09T03:48:11.687Z,99.99
2019-03-09T03:49:11.632Z,99.99
2019-03-09T03:50:11.610Z,99.99
2019-03-09T03:51:11.551Z,99.99
2019-03-09T03:52:11.511Z,99.99
2019-03-09T03:53:11.454Z,99.99
2019-03-09T03:54:11.413Z,99.99
2019-03-09T03:55:11.387Z,99.80
2019-03-09T03:56:11.330Z,99.99
2019-03-09T03:57:11.306Z,99.99
2019-03-09T03:58:11.233Z,99.99
2019-03-09T03:59:11.214Z,99.99
2019-03-09T04:00:11.172Z,99.99
2019-03-09T04:01:11.116Z,99.99
2019-03-09T04:02:11.079Z,99.99
2019-03-09T04:03:11.012Z,99.99
2019-03-09T04:04:10.973Z,99.99
2019-03-09T04:05:10.920Z,99.99
2019-03-09T04:06:10.884Z,99.99
2019-03-09T04:07:10.838Z,99.99
2019-03-09T04:08:10.793Z,99.99
2019-03-09T04:09:10.734Z,99.99
2019-03-09T04:10:10.693Z,99.99
2019-03-09T04:11:10.665Z,99.99
2019-03-09T04:12:10.610Z,99.99
2019-03-09T04:13:10.574Z,99.99
2019-03-09T04:14:10.522Z,99.99
2019-03-09T04:15:10.475Z,99.99
2019-03-09T04:16:10.427Z,99.99
2019-03-09T04:17:10.387Z,99.99
2019-03-09T04:18:10.343Z,99.99
2019-03-09T04:19:10.298Z,99.99
2019-03-09T04:20:10.251Z,99.99
2019-03-09T04:21:10.207Z,99.99
2019-03-09T04:22:10.162Z,99.99
2019-03-09T04:23:10.104Z,99.99
2019-03-09T04:24:10.079Z,99.99
2019-03-09T04:25:10.095Z,99.99
2019-03-09T04:26:09.990Z,99.99
2019-03-09T04:27:09.978Z,99.99
2019-03-09T04:28:09.901Z,99.99
2019-03-09T04:29:09.854Z,99.99
2019-03-09T04:30:09.797Z,99.99
2019-03-09T04:31:09.744Z,99.99
2019-03-09T04:32:09.713Z,99.99
2019-03-09T04:33:09.670Z,99.99
2019-03-09T04:34:09.621Z,99.99
2019-03-09T04:35:09.595Z,99.99
2019-03-09T04:36:09.527Z,99.99
2019-03-09T04:37:09.474Z,99.99
2019-03-09T04:38:09.440Z,99.99
2019-03-09T04:39:09.405Z,99.99
2019-03-09T04:40:09.362Z,99.99
2019-03-09T04:41:09.305Z,99.99
2019-03-09T04:42:09.268Z,99.99
2019-03-09T04:43:09.214Z,99.99
2019-03-09T04:44:09.169Z,99.99
2019-03-09T04:45:09.111Z,99.99
2019-03-09T04:46:09.075Z,99.99
2019-03-09T04:47:09.030Z,99.99
2019-03-09T04:48:08.997Z,99.99
2019-03-09T04:49:08.939Z,99.99
2019-03-09T04:50:08.887Z,99.99
2019-03-09T04:51:08.854Z,99.99
2019-03-09T04:52:08.817Z,99.99
2019-03-09T04:53:08.763Z,99.99
2019-03-09T04:54:08.705Z,99.99
2019-03-09T04:55:08.669Z,99.99
2019-03-09T04:56:08.615Z,99.99
2019-03-09T04:57:08.582Z,99.99
2019-03-09T04:58:08.546Z,99.99
2019-03-09T04:59:08.501Z,99.99
2019-03-09T05:00:08.436Z,99.99
2019-03-09T05:01:08.411Z,99.99
2019-03-09T05:02:08.348Z,99.99
2019-03-09T05:03:08.312Z,99.99
2019-03-09T05:04:08.270Z,99.99
2019-03-09T05:05:08.218Z,99.99
2019-03-09T05:06:08.173Z,99.99
2019-03-09T05:07:08.140Z,99.99
2019-03-09T05:08:08.080Z,99.99
2019-03-09T05:09:08.038Z,99.99
2019-03-09T05:10:07.992Z,99.99
2019-03-09T05:11:07.952Z,99.99
2019-03-09T05:12:07.902Z,99.99
2019-03-09T05:13:07.870Z,99.99
2019-03-09T05:14:07.813Z,99.99
2019-03-09T05:15:07.783Z,99.99
2019-03-09T05:16:07.735Z,99.99
2019-03-09T05:17:07.690Z,99.99
2019-03-09T05:18:07.645Z,99.99
2019-03-09T05:19:07.602Z,99.99
2019-03-09T05:20:07.556Z,99.99
2019-03-09T05:21:07.497Z,99.99
2019-03-09T05:22:07.458Z,99.99
2019-03-09T05:23:07.407Z,99.99
2019-03-09T05:24:07.312Z,99.99
2019-03-09T05:25:07.321Z,99.99
2019-03-09T05:26:07.284Z,99.99
2019-03-09T05:27:07.219Z,99.99
2019-03-09T05:28:07.194Z,99.99
2019-03-09T05:29:07.136Z,99.99
2019-03-09T05:30:07.109Z,99.99
2019-03-09T05:31:07.046Z,99.99
2019-03-09T05:32:07.014Z,99.99
2019-03-09T05:33:06.968Z,99.99
2019-03-09T05:34:06.915Z,99.99
2019-03-09T05:35:06.871Z,99.99
2019-03-09T05:36:06.812Z,99.99
2019-03-09T05:37:06.791Z,99.99
2019-03-09T05:38:06.721Z,99.99
2019-03-09T05:39:06.676Z,99.99
2019-03-09T05:40:06.632Z,99.99
2019-03-09T05:41:06.595Z,99.99
2019-03-09T05:42:06.541Z,99.99
2019-03-09T05:43:06.520Z,99.99
2019-03-09T05:44:06.464Z,99.99
2019-03-09T05:45:06.417Z,99.99
2019-03-09T05:46:06.369Z,99.99
2019-03-09T05:47:06.316Z,99.99
2019-03-09T05:48:06.279Z,99.99
2019-03-09T05:49:06.226Z,99.99
2019-03-09T05:50:06.186Z,99.99
2019-03-09T05:51:06.145Z,99.99
2019-03-09T05:52:06.103Z,99.99
2019-03-09T05:53:06.057Z,99.99
2019-03-09T05:54:05.999Z,99.99
2019-03-09T05:55:05.964Z,99.99
2019-03-09T05:56:07.805Z,99.99
2019-03-09T05:57:05.873Z,99.99
2019-03-09T05:58:05.819Z,99.99
2019-03-09T05:59:05.795Z,99.99
2019-03-09T06:00:05.748Z,99.99
2019-03-09T06:01:05.691Z,99.99
2019-03-09T06:02:05.646Z,99.99
2019-03-09T06:03:05.593Z,99.99
2019-03-09T06:04:05.547Z,99.99
2019-03-09T06:05:05.523Z,99.99
2019-03-09T06:06:05.466Z,99.99
2019-03-09T06:07:05.420Z,99.99
2019-03-09T06:08:05.390Z,99.99
2019-03-09T06:09:05.321Z,99.99
2019-03-09T06:10:05.276Z,99.99
2019-03-09T06:11:05.244Z,99.99
2019-03-09T06:12:05.186Z,99.99
2019-03-09T06:13:05.162Z,99.99
2019-03-09T06:14:05.099Z,99.99
2019-03-09T06:15:05.051Z,99.99
2019-03-09T06:16:05.027Z,99.99
2019-03-09T06:17:04.985Z,99.99
2019-03-09T06:18:06.412Z,99.99
2019-03-09T06:19:04.878Z,99.99
2019-03-09T06:20:04.840Z,99.99
2019-03-09T06:21:04.788Z,99.99
2019-03-09T06:22:04.745Z,99.99
2019-03-09T06:23:04.690Z,99.99
2019-03-09T06:24:04.657Z,99.99
2019-03-09T06:25:04.607Z,99.99
2019-03-09T06:26:04.556Z,99.99
2019-03-09T06:27:04.513Z,99.99
2019-03-09T06:28:04.485Z,99.99
2019-03-09T06:29:04.419Z,99.99
2019-03-09T06:30:04.381Z,99.99
2019-03-09T06:31:04.341Z,99.99
2019-03-09T06:32:04.282Z,99.99
2019-03-09T06:33:04.251Z,99.99
2019-03-09T06:34:04.204Z,99.99
2019-03-09T06:35:04.150Z,99.99
2019-03-09T06:36:04.113Z,99.99
2019-03-09T06:37:04.079Z,99.99
2019-03-09T06:38:04.026Z,99.99
2019-03-09T06:39:03.980Z,99.99
2019-03-09T06:40:04.124Z,99.99
2019-03-09T06:41:03.879Z,99.99
2019-03-09T06:42:03.831Z,99.99
2019-03-09T06:43:03.808Z,99.99
2019-03-09T06:44:03.743Z,99.99
2019-03-09T06:45:03.696Z,99.99
2019-03-09T06:46:03.654Z,99.99
2019-03-09T06:47:03.605Z,99.99
2019-03-09T06:48:03.584Z,99.99
2019-03-09T06:49:03.531Z,99.99
2019-03-09T06:50:03.485Z,99.99
2019-03-09T06:51:03.446Z,99.99
2019-03-09T06:52:03.379Z,99.99
2019-03-09T06:53:03.370Z,99.99
2019-03-09T06:54:03.308Z,99.99
2019-03-09T06:55:03.253Z,99.99
2019-03-09T06:56:03.208Z,99.99
2019-03-09T06:57:03.166Z,99.99
2019-03-09T06:58:03.118Z,99.99
2019-03-09T06:59:03.075Z,99.99
2019-03-09T07:00:03.031Z,99.99
2019-03-09T07:01:02.981Z,99.99
2019-03-09T07:02:02.949Z,99.99
2019-03-09T07:03:02.900Z,99.99
2019-03-09T07:04:02.838Z,99.99
2019-03-09T07:05:02.801Z,99.99
2019-03-09T07:06:02.769Z,99.99
2019-03-09T07:07:02.715Z,99.99
2019-03-09T07:08:02.670Z,99.99
2019-03-09T07:09:02.626Z,99.99
2019-03-09T07:10:02.578Z,99.99
2019-03-09T07:11:02.532Z,99.99
2019-03-09T07:12:02.477Z,99.99
2019-03-09T07:13:02.454Z,99.99
2019-03-09T07:14:02.398Z,99.99
2019-03-09T07:15:02.362Z,99.99
2019-03-09T07:16:02.295Z,99.99
2019-03-09T07:17:02.273Z,99.99
2019-03-09T07:18:02.218Z,99.99
2019-03-09T07:19:02.181Z,99.99
2019-03-09T07:20:11.925Z,99.99
2019-03-09T07:21:02.091Z,99.99
2019-03-09T07:22:02.026Z,99.99
2019-03-09T07:23:01.992Z,99.99
2019-03-09T07:24:01.933Z,99.99
2019-03-09T07:25:01.911Z,99.99
2019-03-09T07:26:01.852Z,99.99
2019-03-09T07:27:01.805Z,99.99
2019-03-09T07:28:01.757Z,99.99
2019-03-09T07:29:01.710Z,99.99
2019-03-09T07:30:01.665Z,99.99
2019-03-09T07:31:01.638Z,99.99
2019-03-09T07:32:01.581Z,99.99
2019-03-09T07:33:01.535Z,99.99
2019-03-09T07:34:01.490Z,99.99
2019-03-09T07:35:01.459Z,99.99
2019-03-09T07:36:01.392Z,99.99
2019-03-09T07:37:01.351Z,99.99
2019-03-09T07:38:01.302Z,99.99
2019-03-09T07:39:01.276Z,99.99
2019-03-09T07:40:01.222Z,99.99
2019-03-09T07:41:01.172Z,99.99
2019-03-09T07:42:01.127Z,99.99
2019-03-09T07:43:01.074Z,99.99
2019-03-09T07:44:01.028Z,99.99
2019-03-09T07:45:01.005Z,99.99
2019-03-09T07:46:00.960Z,99.99
2019-03-09T07:47:00.901Z,99.99
2019-03-09T07:48:00.860Z,99.99
2019-03-09T07:49:00.823Z,99.99
2019-03-09T07:50:00.779Z,99.99
2019-03-09T07:51:00.725Z,99.99
2019-03-09T07:52:00.681Z,99.99
2019-03-09T07:53:00.629Z,99.99
2019-03-09T07:54:00.588Z,99.99
2019-03-09T07:55:00.544Z,99.99
2019-03-09T07:56:00.506Z,99.99
2019-03-09T07:57:00.461Z,99.99
2019-03-09T07:58:00.403Z,99.99
2019-03-09T07:59:00.370Z,99.99
2019-03-09T08:00:00.357Z,99.99
2019-03-09T08:01:00.258Z,99.99
2019-03-09T08:02:00.213Z,99.99
2019-03-09T08:03:00.176Z,99.99
2019-03-09T08:04:00.135Z,99.99
2019-03-09T08:05:00.082Z,99.99
2019-03-09T08:06:00.040Z,99.99
2019-03-09T08:06:59.999Z,99.99
2019-03-09T08:07:59.953Z,99.99
2019-03-09T08:08:59.904Z,99.99
2019-03-09T08:09:59.858Z,99.99
2019-03-09T08:10:59.813Z,99.99
2019-03-09T08:11:59.781Z,99.99
2019-03-09T08:12:59.743Z,99.99
2019-03-09T08:13:59.681Z,99.99
2019-03-09T08:14:59.645Z,99.99
2019-03-09T08:15:59.593Z,99.99
2019-03-09T08:16:59.532Z,99.99
2019-03-09T08:17:59.503Z,99.99
2019-03-09T08:18:59.450Z,99.99
2019-03-09T08:19:59.404Z,99.99
2019-03-09T08:20:59.360Z,99.99
2019-03-09T08:21:59.320Z,99.99
2019-03-09T08:22:59.287Z,99.99
2019-03-09T08:23:59.240Z,99.99
2019-03-09T08:24:59.178Z,99.99
2019-03-09T08:25:59.153Z,99.99
2019-03-09T08:26:59.104Z,99.99
2019-03-09T08:27:59.052Z,99.99
2019-03-09T08:28:59.025Z,99.99
2019-03-09T08:29:58.971Z,99.99
2019-03-09T08:30:58.911Z,99.99
2019-03-09T08:31:58.866Z,99.99
2019-03-09T08:32:58.809Z,99.99
2019-03-09T08:33:58.762Z,99.99
2019-03-09T08:34:58.719Z,99.99
2019-03-09T08:35:58.682Z,99.99
2019-03-09T08:36:58.658Z,99.99
2019-03-09T08:37:58.593Z,99.99
2019-03-09T08:38:58.555Z,99.99
2019-03-09T08:39:58.495Z,99.99
2019-03-09T08:40:58.457Z,99.99
2019-03-09T08:41:58.420Z,99.99
2019-03-09T08:42:58.370Z,99.99
2019-03-09T08:43:58.329Z,99.99
2019-03-09T08:44:58.305Z,99.99
2019-03-09T08:45:58.244Z,99.99
2019-03-09T08:46:58.213Z,99.99
2019-03-09T08:47:58.139Z,99.99
2019-03-09T08:49:00.007Z,99.99
2019-03-09T08:49:58.037Z,99.99
2019-03-09T08:50:58.021Z,99.99
2019-03-09T08:51:58.013Z,99.99
2019-03-09T08:52:57.951Z,99.99
2019-03-09T08:53:57.867Z,99.99
2019-03-09T08:54:57.821Z,99.99
2019-03-09T08:55:57.824Z,99.99
2019-03-09T08:56:57.727Z,99.99
2019-03-09T08:57:57.686Z,99.99
2019-03-09T08:58:57.629Z,99.99
2019-03-09T08:59:57.605Z,99.99
2019-03-09T09:00:57.555Z,99.99
2019-03-09T09:01:57.532Z,99.99
2019-03-09T09:02:57.454Z,99.99
2019-03-09T09:03:57.400Z,99.99
2019-03-09T09:04:57.370Z,99.99
2019-03-09T09:05:57.309Z,99.99
2019-03-09T09:06:57.277Z,99.99
2019-03-09T09:07:57.228Z,99.99
2019-03-09T09:08:57.175Z,99.99
2019-03-09T09:09:57.139Z,99.99
2019-03-09T09:10:57.124Z,99.99
2019-03-09T09:11:57.058Z,99.99
2019-03-09T09:12:57.000Z,99.99
2019-03-09T09:13:56.967Z,99.99
2019-03-09T09:14:56.922Z,99.99
2019-03-09T09:15:56.858Z,99.99
2019-03-09T09:16:56.810Z,99.99
2019-03-09T09:17:56.791Z,99.99
2019-03-09T09:18:56.719Z,99.99
2019-03-09T09:19:56.687Z,99.99
2019-03-09T09:20:56.641Z,99.99
2019-03-09T09:21:56.591Z,99.99
2019-03-09T09:22:56.542Z,99.99
2019-03-09T09:23:56.506Z,99.99
2019-03-09T09:24:56.447Z,99.99
2019-03-09T09:25:56.423Z,99.99
2019-03-09T09:26:56.379Z,99.99
2019-03-09T09:27:56.333Z,99.99
2019-03-09T09:28:56.287Z,99.99
2019-03-09T09:29:56.222Z,99.99
2019-03-09T09:30:56.189Z,99.99
2019-03-09T09:31:56.138Z,99.99
2019-03-09T09:32:56.097Z,99.99
2019-03-09T09:33:58.290Z,99.99
2019-03-09T09:34:55.994Z,99.99
2019-03-09T09:35:55.958Z,99.99
2019-03-09T09:36:55.927Z,99.99
2019-03-09T09:37:55.879Z,99.99
2019-03-09T09:38:55.826Z,99.99
2019-03-09T09:39:55.768Z,99.99
2019-03-09T09:40:55.731Z,99.99
2019-03-09T09:41:55.678Z,99.99
2019-03-09T09:42:55.643Z,99.99
2019-03-09T09:43:55.610Z,99.99
2019-03-09T09:44:55.543Z,99.99
2019-03-09T09:45:55.507Z,99.99
2019-03-09T09:46:55.454Z,99.99
2019-03-09T09:47:55.432Z,99.99
2019-03-09T09:48:55.366Z,99.70
2019-03-09T09:49:55.344Z,97.52
2019-03-09T09:50:55.304Z,94.75
2019-03-09T09:51:55.235Z,92.95
2019-03-09T09:52:55.207Z,91.74
2019-03-09T09:53:55.152Z,90.61
2019-03-09T09:54:55.108Z,89.15
2019-03-09T09:55:55.081Z,87.79
2019-03-09T09:56:55.046Z,86.38
2019-03-09T09:57:54.983Z,85.35
2019-03-09T09:58:54.942Z,84.86
2019-03-09T09:59:54.910Z,83.89
2019-03-09T10:00:54.871Z,83.34
2019-03-09T10:01:54.842Z,83.15
2019-03-09T10:02:54.793Z,81.93
2019-03-09T10:03:54.758Z,80.66
2019-03-09T10:04:54.715Z,80.31
2019-03-09T10:05:54.662Z,79.33
2019-03-09T10:06:54.638Z,78.85
2019-03-09T10:07:54.610Z,78.06
2019-03-09T10:08:54.554Z,78.16
2019-03-09T10:09:54.515Z,78.36
2019-03-09T10:10:54.490Z,78.22
2019-03-09T10:11:54.438Z,78.22
2019-03-09T10:12:55.903Z,79.30
2019-03-09T10:13:54.351Z,79.74
2019-03-09T10:14:54.319Z,79.74
2019-03-09T10:15:54.293Z,80.62
2019-03-09T10:16:54.253Z,81.94
2019-03-09T10:17:54.214Z,82.43
2019-03-09T10:18:54.164Z,82.29
2019-03-09T10:19:54.120Z,82.87
2019-03-09T10:20:54.079Z,83.46
2019-03-09T10:21:54.030Z,84.10
2019-03-09T10:23:03.617Z,84.58
2019-03-09T10:23:53.962Z,85.03
2019-03-09T10:24:53.932Z,85.03
2019-03-09T10:25:53.887Z,84.64
2019-03-09T10:26:53.833Z,85.22
2019-03-09T10:27:53.806Z,85.90
2019-03-09T10:28:53.754Z,86.19
2019-03-09T10:29:53.711Z,86.54
2019-03-09T10:30:53.667Z,86.93
2019-03-09T10:31:53.614Z,86.83
2019-03-09T10:32:53.587Z,87.22
2019-03-09T10:33:53.549Z,87.41
2019-03-09T10:34:53.488Z,88.39
2019-03-09T10:35:53.446Z,88.00
2019-03-09T10:36:53.427Z,88.68
2019-03-09T10:37:53.384Z,88.58
2019-03-09T10:38:53.321Z,86.68
2019-03-09T10:39:53.285Z,85.85
2019-03-09T10:40:53.261Z,85.36
2019-03-09T10:41:53.208Z,85.02
2019-03-09T10:42:53.163Z,83.46
2019-03-09T10:43:53.109Z,82.62
2019-03-09T10:44:53.068Z,81.65
2019-03-09T10:45:53.048Z,81.46
2019-03-09T10:46:53.010Z,82.14
2019-03-09T10:47:52.945Z,82.49
2019-03-09T10:48:52.913Z,83.17
2019-03-09T10:49:52.864Z,83.42
2019-03-09T10:50:52.822Z,84.20
2019-03-09T10:51:52.781Z,84.55
2019-03-09T10:52:52.762Z,84.93
2019-03-09T10:53:52.708Z,85.52
2019-03-09T10:54:52.685Z,86.10
2019-03-09T10:55:52.630Z,85.96
2019-03-09T10:56:52.575Z,86.44
2019-03-09T10:57:52.542Z,86.44
2019-03-09T10:58:52.514Z,86.83
2019-03-09T10:59:52.462Z,87.12
2019-03-09T11:00:52.421Z,86.64
2019-03-09T11:01:52.365Z,85.86
2019-03-09T11:02:52.343Z,86.54
2019-03-09T11:03:52.302Z,86.44
2019-03-09T11:04:52.260Z,87.07
2019-03-09T11:05:52.210Z,86.74
2019-03-09T11:06:52.154Z,86.74
2019-03-09T11:07:52.135Z,86.25
2019-03-09T11:08:52.077Z,86.64
2019-03-09T11:09:52.027Z,86.29
2019-03-09T11:10:51.997Z,86.00
2019-03-09T11:11:51.941Z,86.04
2019-03-09T11:12:51.911Z,84.74
2019-03-09T11:13:52.354Z,85.17
2019-03-09T11:14:51.822Z,84.39
2019-03-09T11:15:51.771Z,83.91
2019-03-09T11:16:51.728Z,83.32
2019-03-09T11:17:51.687Z,84.00
2019-03-09T11:18:51.654Z,83.81
2019-03-09T11:19:51.601Z,83.42
2019-03-09T11:20:51.566Z,82.84
2019-03-09T11:21:51.540Z,82.35
2019-03-09T11:22:51.474Z,82.25
2019-03-09T11:23:51.512Z,82.84
2019-03-09T11:24:51.411Z,82.54
2019-03-09T11:25:51.349Z,81.61
2019-03-09T11:26:51.325Z,81.41
2019-03-09T11:27:51.275Z,81.32
2019-03-09T11:28:51.240Z,81.90
2019-03-09T11:29:51.189Z,82.06
2019-03-09T11:30:51.144Z,81.41
2019-03-09T11:31:51.101Z,81.71
2019-03-09T11:32:51.058Z,81.90
2019-03-09T11:33:51.016Z,81.65
2019-03-09T11:34:50.966Z,81.75
2019-03-09T11:35:50.943Z,79.51
2019-03-09T11:36:50.894Z,79.41
2019-03-09T11:37:50.860Z,79.12
2019-03-09T11:38:50.807Z,79.80
2019-03-09T11:39:50.768Z,79.90
2019-03-09T11:40:57.381Z,80.68
2019-03-09T11:41:50.682Z,80.77
2019-03-09T11:42:50.628Z,80.58
2019-03-09T11:43:50.585Z,80.68
2019-03-09T11:44:50.555Z,80.58
2019-03-09T11:45:50.522Z,80.68
2019-03-09T11:46:50.469Z,79.90
2019-03-09T11:47:50.416Z,80.00
2019-03-09T11:48:50.393Z,79.61
2019-03-09T11:49:50.331Z,80.09
2019-03-09T11:50:50.302Z,80.00
2019-03-09T11:51:50.257Z,80.77
2019-03-09T11:52:50.213Z,80.38
2019-03-09T11:53:50.183Z,80.29
2019-03-09T11:54:50.133Z,80.38
2019-03-09T11:55:50.078Z,80.58
2019-03-09T11:56:50.057Z,81.16
2019-03-09T11:57:50.001Z,80.48
2019-03-09T11:58:49.965Z,81.07
2019-03-09T11:59:49.921Z,80.58
2019-03-09T12:00:49.881Z,80.97
2019-03-09T12:01:49.846Z,80.58
2019-03-09T12:02:49.790Z,80.48
2019-03-09T12:03:49.766Z,80.48
2019-03-09T12:04:49.697Z,81.94
2019-03-09T12:05:49.679Z,81.85
2019-03-09T12:06:49.628Z,81.46
2019-03-09T12:07:49.582Z,81.46
2019-03-09T12:08:49.549Z,80.38
2019-03-09T12:09:49.498Z,80.48
2019-03-09T12:10:49.443Z,80.68
2019-03-09T12:11:50.758Z,81.07
2019-03-09T12:12:49.373Z,80.77
2019-03-09T12:13:49.336Z,81.65
2019-03-09T12:14:49.285Z,82.10
2019-03-09T12:15:49.251Z,83.07
2019-03-09T12:16:49.213Z,82.68
2019-03-09T12:17:50.697Z,82.20
2019-03-09T12:18:49.115Z,81.41
2019-03-09T12:19:49.069Z,80.97
2019-03-09T12:20:49.030Z,81.26
2019-03-09T12:21:48.983Z,81.46
2019-03-09T12:22:48.940Z,80.58
2019-03-09T12:23:48.911Z,80.77
2019-03-09T12:24:48.869Z,81.01
2019-03-09T12:25:48.826Z,81.10
2019-03-09T12:26:48.791Z,80.62
2019-03-09T12:27:48.743Z,80.23
2019-03-09T12:28:48.682Z,80.13
2019-03-09T12:29:48.656Z,79.16
2019-03-09T12:30:48.605Z,78.96
2019-03-09T12:31:48.559Z,78.96
2019-03-09T12:32:48.516Z,79.16
2019-03-09T12:33:48.608Z,78.91
2019-03-09T12:34:48.423Z,79.20
2019-03-09T12:35:48.381Z,78.81
2019-03-09T12:36:48.347Z,78.52
2019-03-09T12:37:48.311Z,78.22
2019-03-09T12:38:48.263Z,78.22
2019-03-09T12:39:48.221Z,77.93
2019-03-09T12:40:48.170Z,77.15
2019-03-09T12:41:48.137Z,76.67
2019-03-09T12:42:48.086Z,76.12
2019-03-09T12:43:48.057Z,76.31
2019-03-09T12:44:48.002Z,74.95
2019-03-09T12:45:47.960Z,74.46
2019-03-09T12:46:47.927Z,73.52
2019-03-09T12:47:47.898Z,73.62
2019-03-09T12:48:47.850Z,73.33
2019-03-09T12:49:47.803Z,72.88
2019-03-09T12:50:47.751Z,73.27
2019-03-09T12:51:47.720Z,73.07